sensor_id;sensor_type;location;lat;lon;timestamp;temperature;humidity
25582;DHT22;13462;50.764;4.332;2023-08-30T00:00:36;13.70;99.90
25582;DHT22;13462;50.764;4.332;2023-08-30T00:03:02;13.80;99.90
25582;DHT22;13462;50.764;4.332;2023-08-30T00:05:27;13.80;99.90
25582;DHT22;13462;50.764;4.332;2023-08-30T00:07:54;13.80;99.90
25582;DHT22;13462;50.764;4.332;2023-08-30T00:10:19;13.70;99.90
25582;DHT22;13462;50.764;4.332;2023-08-30T00:12:45;13.60;99.90
25582;DHT22;13462;50.764;4.332;2023-08-30T00:15:11;13.50;99.90
25582;DHT22;13462;50.764;4.332;2023-08-30T00:17:36;13.50;99.90
25582;DHT22;13462;50.764;4.332;2023-08-30T00:20:02;13.60;99.90
25582;DHT22;13462;50.764;4.332;2023-08-30T00:22:28;13.60;99.90
25582;DHT22;13462;50.764;4.332;2023-08-30T00:24:54;13.60;99.90
25582;DHT22;13462;50.764;4.332;2023-08-30T00:27:20;13.60;99.90
25582;DHT22;13462;50.764;4.332;2023-08-30T00:29:46;13.60;99.90
25582;DHT22;13462;50.764;4.332;2023-08-30T00:32:12;13.50;99.90
25582;DHT22;13462;50.764;4.332;2023-08-30T00:34:37;13.40;99.90
25582;DHT22;13462;50.764;4.332;2023-08-30T00:37:03;13.30;99.90
25582;DHT22;13462;50.764;4.332;2023-08-30T00:39:29;13.30;99.90
25582;DHT22;13462;50.764;4.332;2023-08-30T00:41:54;13.30;99.90
25582;DHT22;13462;50.764;4.332;2023-08-30T00:44:21;13.40;99.90
25582;DHT22;13462;50.764;4.332;2023-08-30T00:46:46;13.40;99.90
25582;DHT22;13462;50.764;4.332;2023-08-30T00:49:13;13.40;99.90
25582;DHT22;13462;50.764;4.332;2023-08-30T00:51:39;13.50;99.90
25582;DHT22;13462;50.764;4.332;2023-08-30T00:54:06;13.50;99.90
25582;DHT22;13462;50.764;4.332;2023-08-30T00:56:32;13.50;99.90
25582;DHT22;13462;50.764;4.332;2023-08-30T00:58:59;13.40;99.90
25582;DHT22;13462;50.764;4.332;2023-08-30T01:01:25;13.40;99.90
25582;DHT22;13462;50.764;4.332;2023-08-30T01:03:51;13.50;99.90
25582;DHT22;13462;50.764;4.332;2023-08-30T01:06:16;13.50;99.90
25582;DHT22;13462;50.764;4.332;2023-08-30T01:08:43;13.50;99.90
25582;DHT22;13462;50.764;4.332;2023-08-30T01:11:42;13.30;99.90
25582;DHT22;13462;50.764;4.332;2023-08-30T01:14:21;13.30;99.90
25582;DHT22;13462;50.764;4.332;2023-08-30T01:16:48;13.20;99.90
25582;DHT22;13462;50.764;4.332;2023-08-30T01:25:08;13.20;99.90
25582;DHT22;13462;50.764;4.332;2023-08-30T01:27:35;13.20;99.90
25582;DHT22;13462;50.764;4.332;2023-08-30T01:30:03;13.30;99.90
25582;DHT22;13462;50.764;4.332;2023-08-30T01:32:31;13.30;99.90
25582;DHT22;13462;50.764;4.332;2023-08-30T01:34:59;13.40;99.90
25582;DHT22;13462;50.764;4.332;2023-08-30T01:37:26;13.40;99.90
25582;DHT22;13462;50.764;4.332;2023-08-30T01:39:53;13.40;99.90
25582;DHT22;13462;50.764;4.332;2023-08-30T01:42:20;13.30;99.90
25582;DHT22;13462;50.764;4.332;2023-08-30T01:44:49;13.30;99.90
25582;DHT22;13462;50.764;4.332;2023-08-30T01:47:15;13.30;99.90
25582;DHT22;13462;50.764;4.332;2023-08-30T01:49:42;13.30;99.90
25582;DHT22;13462;50.764;4.332;2023-08-30T01:52:09;13.30;99.90
25582;DHT22;13462;50.764;4.332;2023-08-30T01:54:37;13.30;99.90
25582;DHT22;13462;50.764;4.332;2023-08-30T01:57:04;13.30;99.90
25582;DHT22;13462;50.764;4.332;2023-08-30T01:59:30;13.30;99.90
25582;DHT22;13462;50.764;4.332;2023-08-30T02:01:55;13.30;99.90
25582;DHT22;13462;50.764;4.332;2023-08-30T02:04:22;13.30;99.90
25582;DHT22;13462;50.764;4.332;2023-08-30T02:06:54;13.30;99.90
25582;DHT22;13462;50.764;4.332;2023-08-30T02:09:36;13.40;99.90
25582;DHT22;13462;50.764;4.332;2023-08-30T02:12:06;13.30;99.90
25582;DHT22;13462;50.764;4.332;2023-08-30T02:14:33;13.40;99.90
25582;DHT22;13462;50.764;4.332;2023-08-30T02:16:59;13.40;99.90
25582;DHT22;13462;50.764;4.332;2023-08-30T02:19:25;13.50;99.90
25582;DHT22;13462;50.764;4.332;2023-08-30T02:21:51;13.50;99.90
25582;DHT22;13462;50.764;4.332;2023-08-30T02:24:17;13.50;99.90
25582;DHT22;13462;50.764;4.332;2023-08-30T02:26:42;13.50;99.90
25582;DHT22;13462;50.764;4.332;2023-08-30T02:29:08;13.60;99.90
25582;DHT22;13462;50.764;4.332;2023-08-30T02:31:35;13.60;99.90
25582;DHT22;13462;50.764;4.332;2023-08-30T02:34:00;13.70;99.90
25582;DHT22;13462;50.764;4.332;2023-08-30T02:36:27;13.70;99.90
25582;DHT22;13462;50.764;4.332;2023-08-30T02:38:53;13.80;99.90
25582;DHT22;13462;50.764;4.332;2023-08-30T02:41:19;13.80;99.90
25582;DHT22;13462;50.764;4.332;2023-08-30T02:43:44;13.80;99.90
25582;DHT22;13462;50.764;4.332;2023-08-30T02:46:10;13.70;99.90
25582;DHT22;13462;50.764;4.332;2023-08-30T02:48:35;13.80;99.90
25582;DHT22;13462;50.764;4.332;2023-08-30T02:51:01;13.90;99.90
25582;DHT22;13462;50.764;4.332;2023-08-30T02:53:27;13.90;99.90
25582;DHT22;13462;50.764;4.332;2023-08-30T02:55:52;13.90;99.90
25582;DHT22;13462;50.764;4.332;2023-08-30T02:58:21;13.90;99.90
25582;DHT22;13462;50.764;4.332;2023-08-30T03:00:46;14.00;99.90
25582;DHT22;13462;50.764;4.332;2023-08-30T03:03:12;14.00;99.90
25582;DHT22;13462;50.764;4.332;2023-08-30T03:05:37;14.00;99.90
25582;DHT22;13462;50.764;4.332;2023-08-30T03:08:03;14.10;99.90
25582;DHT22;13462;50.764;4.332;2023-08-30T03:10:29;14.10;99.90
25582;DHT22;13462;50.764;4.332;2023-08-30T03:12:54;14.20;99.90
25582;DHT22;13462;50.764;4.332;2023-08-30T03:15:20;14.20;99.90
25582;DHT22;13462;50.764;4.332;2023-08-30T03:17:46;14.20;99.90
25582;DHT22;13462;50.764;4.332;2023-08-30T03:20:11;14.10;99.90
25582;DHT22;13462;50.764;4.332;2023-08-30T03:22:37;14.10;99.90
25582;DHT22;13462;50.764;4.332;2023-08-30T03:25:03;14.20;99.90
25582;DHT22;13462;50.764;4.332;2023-08-30T03:27:29;14.20;99.90
25582;DHT22;13462;50.764;4.332;2023-08-30T03:29:55;14.20;99.90
25582;DHT22;13462;50.764;4.332;2023-08-30T03:32:21;14.20;99.90
25582;DHT22;13462;50.764;4.332;2023-08-30T03:34:48;14.10;99.90
25582;DHT22;13462;50.764;4.332;2023-08-30T03:37:14;14.10;99.90
25582;DHT22;13462;50.764;4.332;2023-08-30T03:39:40;14.20;99.90
25582;DHT22;13462;50.764;4.332;2023-08-30T03:42:06;14.10;99.90
25582;DHT22;13462;50.764;4.332;2023-08-30T03:44:31;14.10;99.90
25582;DHT22;13462;50.764;4.332;2023-08-30T03:46:57;14.10;99.90
25582;DHT22;13462;50.764;4.332;2023-08-30T03:49:23;14.20;99.90
25582;DHT22;13462;50.764;4.332;2023-08-30T03:51:48;14.20;99.90
25582;DHT22;13462;50.764;4.332;2023-08-30T03:54:14;14.10;99.90
25582;DHT22;13462;50.764;4.332;2023-08-30T03:56:43;14.10;99.90
25582;DHT22;13462;50.764;4.332;2023-08-30T03:59:08;14.10;99.90
25582;DHT22;13462;50.764;4.332;2023-08-30T04:01:34;14.20;99.90
25582;DHT22;13462;50.764;4.332;2023-08-30T04:03:59;14.10;99.90
25582;DHT22;13462;50.764;4.332;2023-08-30T04:06:25;14.10;99.90
25582;DHT22;13462;50.764;4.332;2023-08-30T04:08:51;14.00;99.90
25582;DHT22;13462;50.764;4.332;2023-08-30T04:11:16;14.10;99.90
25582;DHT22;13462;50.764;4.332;2023-08-30T04:13:42;14.10;99.90
25582;DHT22;13462;50.764;4.332;2023-08-30T04:16:07;14.00;99.90
25582;DHT22;13462;50.764;4.332;2023-08-30T04:18:33;14.10;99.90
25582;DHT22;13462;50.764;4.332;2023-08-30T04:20:59;14.10;99.90
25582;DHT22;13462;50.764;4.332;2023-08-30T04:23:25;14.10;99.90
25582;DHT22;13462;50.764;4.332;2023-08-30T04:25:50;14.20;99.90
25582;DHT22;13462;50.764;4.332;2023-08-30T04:28:17;14.20;99.90
25582;DHT22;13462;50.764;4.332;2023-08-30T04:30:43;14.00;99.90
25582;DHT22;13462;50.764;4.332;2023-08-30T04:33:08;14.10;99.90
25582;DHT22;13462;50.764;4.332;2023-08-30T04:35:34;14.10;99.90
25582;DHT22;13462;50.764;4.332;2023-08-30T04:38:01;14.10;99.90
25582;DHT22;13462;50.764;4.332;2023-08-30T04:40:27;14.10;99.90
25582;DHT22;13462;50.764;4.332;2023-08-30T04:42:52;13.90;99.90
25582;DHT22;13462;50.764;4.332;2023-08-30T04:45:18;13.80;99.90
25582;DHT22;13462;50.764;4.332;2023-08-30T04:47:44;13.80;99.90
25582;DHT22;13462;50.764;4.332;2023-08-30T04:50:11;13.80;99.90
25582;DHT22;13462;50.764;4.332;2023-08-30T04:52:36;13.70;99.90
25582;DHT22;13462;50.764;4.332;2023-08-30T04:55:02;13.70;99.90
25582;DHT22;13462;50.764;4.332;2023-08-30T04:57:28;13.70;99.90
25582;DHT22;13462;50.764;4.332;2023-08-30T04:59:54;13.70;99.90
25582;DHT22;13462;50.764;4.332;2023-08-30T05:02:20;13.70;99.90
25582;DHT22;13462;50.764;4.332;2023-08-30T05:04:45;13.70;99.90
25582;DHT22;13462;50.764;4.332;2023-08-30T05:07:11;13.70;99.90
25582;DHT22;13462;50.764;4.332;2023-08-30T05:09:37;13.60;99.90
25582;DHT22;13462;50.764;4.332;2023-08-30T05:12:03;13.60;99.90
25582;DHT22;13462;50.764;4.332;2023-08-30T05:14:29;13.50;99.90
25582;DHT22;13462;50.764;4.332;2023-08-30T05:16:54;13.50;99.90
25582;DHT22;13462;50.764;4.332;2023-08-30T05:19:20;13.50;99.90
25582;DHT22;13462;50.764;4.332;2023-08-30T05:21:46;13.50;99.90
25582;DHT22;13462;50.764;4.332;2023-08-30T05:24:11;13.50;99.90
25582;DHT22;13462;50.764;4.332;2023-08-30T05:26:37;13.60;99.90
25582;DHT22;13462;50.764;4.332;2023-08-30T05:29:03;13.60;99.90
25582;DHT22;13462;50.764;4.332;2023-08-30T05:31:29;13.50;99.90
25582;DHT22;13462;50.764;4.332;2023-08-30T05:33:54;13.60;99.90
25582;DHT22;13462;50.764;4.332;2023-08-30T05:36:20;13.60;99.90
25582;DHT22;13462;50.764;4.332;2023-08-30T05:38:46;13.60;99.90
25582;DHT22;13462;50.764;4.332;2023-08-30T05:41:11;13.60;99.90
25582;DHT22;13462;50.764;4.332;2023-08-30T05:43:37;13.60;99.90
25582;DHT22;13462;50.764;4.332;2023-08-30T05:46:03;13.50;99.90
25582;DHT22;13462;50.764;4.332;2023-08-30T05:48:29;13.50;99.90
25582;DHT22;13462;50.764;4.332;2023-08-30T05:50:55;13.60;99.90
25582;DHT22;13462;50.764;4.332;2023-08-30T05:53:20;13.60;99.90
25582;DHT22;13462;50.764;4.332;2023-08-30T05:55:46;13.60;99.90
25582;DHT22;13462;50.764;4.332;2023-08-30T05:58:11;13.70;99.90
25582;DHT22;13462;50.764;4.332;2023-08-30T06:00:39;13.60;99.90
25582;DHT22;13462;50.764;4.332;2023-08-30T06:03:04;13.70;99.90
25582;DHT22;13462;50.764;4.332;2023-08-30T06:05:30;13.70;99.90
25582;DHT22;13462;50.764;4.332;2023-08-30T06:07:56;13.70;99.90
25582;DHT22;13462;50.764;4.332;2023-08-30T06:10:23;13.70;99.90
25582;DHT22;13462;50.764;4.332;2023-08-30T06:12:48;13.80;99.90
25582;DHT22;13462;50.764;4.332;2023-08-30T06:15:14;13.80;99.90
25582;DHT22;13462;50.764;4.332;2023-08-30T06:17:40;13.80;99.90
25582;DHT22;13462;50.764;4.332;2023-08-30T06:20:06;13.80;99.90
25582;DHT22;13462;50.764;4.332;2023-08-30T06:22:31;13.90;99.90
25582;DHT22;13462;50.764;4.332;2023-08-30T06:24:57;14.00;99.90
25582;DHT22;13462;50.764;4.332;2023-08-30T06:27:23;14.00;99.90
25582;DHT22;13462;50.764;4.332;2023-08-30T06:29:49;14.10;99.90
25582;DHT22;13462;50.764;4.332;2023-08-30T06:32:16;14.00;99.90
25582;DHT22;13462;50.764;4.332;2023-08-30T06:34:42;13.90;99.90
25582;DHT22;13462;50.764;4.332;2023-08-30T06:37:08;13.90;99.90
25582;DHT22;13462;50.764;4.332;2023-08-30T06:39:34;14.00;99.90
25582;DHT22;13462;50.764;4.332;2023-08-30T06:42:01;14.00;99.90
25582;DHT22;13462;50.764;4.332;2023-08-30T06:44:26;13.90;99.90
25582;DHT22;13462;50.764;4.332;2023-08-30T06:46:52;14.00;99.90
25582;DHT22;13462;50.764;4.332;2023-08-30T06:49:18;14.10;99.90
25582;DHT22;13462;50.764;4.332;2023-08-30T06:51:43;14.10;99.90
25582;DHT22;13462;50.764;4.332;2023-08-30T06:54:09;14.10;99.90
25582;DHT22;13462;50.764;4.332;2023-08-30T06:56:34;14.00;99.90
25582;DHT22;13462;50.764;4.332;2023-08-30T06:59:00;14.00;99.90
25582;DHT22;13462;50.764;4.332;2023-08-30T07:01:26;14.00;99.90
25582;DHT22;13462;50.764;4.332;2023-08-30T07:03:51;14.00;99.90
25582;DHT22;13462;50.764;4.332;2023-08-30T07:06:17;14.00;99.90
25582;DHT22;13462;50.764;4.332;2023-08-30T07:08:42;14.00;99.90
25582;DHT22;13462;50.764;4.332;2023-08-30T07:11:08;14.10;99.90
25582;DHT22;13462;50.764;4.332;2023-08-30T07:13:34;14.10;99.90
25582;DHT22;13462;50.764;4.332;2023-08-30T07:16:00;14.20;99.90
25582;DHT22;13462;50.764;4.332;2023-08-30T07:18:25;14.20;99.90
25582;DHT22;13462;50.764;4.332;2023-08-30T07:20:51;14.20;99.90
25582;DHT22;13462;50.764;4.332;2023-08-30T07:23:16;14.20;99.90
25582;DHT22;13462;50.764;4.332;2023-08-30T07:25:42;14.20;99.90
25582;DHT22;13462;50.764;4.332;2023-08-30T07:28:08;14.20;99.90
25582;DHT22;13462;50.764;4.332;2023-08-30T07:30:34;14.10;99.90
25582;DHT22;13462;50.764;4.332;2023-08-30T07:33:03;14.10;99.90
25582;DHT22;13462;50.764;4.332;2023-08-30T07:35:30;14.20;99.90
25582;DHT22;13462;50.764;4.332;2023-08-30T07:37:55;14.30;99.90
25582;DHT22;13462;50.764;4.332;2023-08-30T07:40:22;14.30;99.90
25582;DHT22;13462;50.764;4.332;2023-08-30T07:42:51;14.30;99.90
25582;DHT22;13462;50.764;4.332;2023-08-30T07:45:17;14.20;99.90
25582;DHT22;13462;50.764;4.332;2023-08-30T07:47:43;14.30;99.90
25582;DHT22;13462;50.764;4.332;2023-08-30T07:50:09;14.30;99.90
25582;DHT22;13462;50.764;4.332;2023-08-30T07:52:34;14.40;99.90
25582;DHT22;13462;50.764;4.332;2023-08-30T07:55:00;14.30;99.90
25582;DHT22;13462;50.764;4.332;2023-08-30T07:57:27;14.30;99.90
25582;DHT22;13462;50.764;4.332;2023-08-30T07:59:53;14.40;99.90
25582;DHT22;13462;50.764;4.332;2023-08-30T08:02:18;14.50;99.90
25582;DHT22;13462;50.764;4.332;2023-08-30T08:04:44;14.50;99.90
25582;DHT22;13462;50.764;4.332;2023-08-30T08:07:09;14.50;99.90
25582;DHT22;13462;50.764;4.332;2023-08-30T08:09:35;14.40;99.90
25582;DHT22;13462;50.764;4.332;2023-08-30T08:12:01;14.50;99.90
25582;DHT22;13462;50.764;4.332;2023-08-30T08:14:26;14.60;99.90
25582;DHT22;13462;50.764;4.332;2023-08-30T08:16:52;14.70;99.90
25582;DHT22;13462;50.764;4.332;2023-08-30T08:19:18;14.60;99.90
25582;DHT22;13462;50.764;4.332;2023-08-30T08:21:45;14.60;99.90
25582;DHT22;13462;50.764;4.332;2023-08-30T08:24:11;14.60;99.90
25582;DHT22;13462;50.764;4.332;2023-08-30T08:26:36;14.60;99.90
25582;DHT22;13462;50.764;4.332;2023-08-30T08:29:02;14.70;99.90
25582;DHT22;13462;50.764;4.332;2023-08-30T08:31:28;14.70;99.90
25582;DHT22;13462;50.764;4.332;2023-08-30T08:34:08;14.80;99.90
25582;DHT22;13462;50.764;4.332;2023-08-30T08:36:35;14.80;99.90
25582;DHT22;13462;50.764;4.332;2023-08-30T08:39:01;14.80;99.90
25582;DHT22;13462;50.764;4.332;2023-08-30T08:41:39;14.90;99.90
25582;DHT22;13462;50.764;4.332;2023-08-30T08:44:05;14.90;99.90
25582;DHT22;13462;50.764;4.332;2023-08-30T08:46:35;15.00;99.90
25582;DHT22;13462;50.764;4.332;2023-08-30T08:49:11;15.00;99.90
25582;DHT22;13462;50.764;4.332;2023-08-30T08:51:39;15.10;99.90
25582;DHT22;13462;50.764;4.332;2023-08-30T08:54:05;15.10;99.90
25582;DHT22;13462;50.764;4.332;2023-08-30T08:56:31;15.20;99.90
25582;DHT22;13462;50.764;4.332;2023-08-30T08:58:58;15.30;99.90
25582;DHT22;13462;50.764;4.332;2023-08-30T09:01:24;15.40;99.90
25582;DHT22;13462;50.764;4.332;2023-08-30T09:03:51;15.40;99.90
25582;DHT22;13462;50.764;4.332;2023-08-30T09:06:18;15.40;99.90
25582;DHT22;13462;50.764;4.332;2023-08-30T09:08:43;15.60;99.90
25582;DHT22;13462;50.764;4.332;2023-08-30T09:11:09;15.60;99.90
25582;DHT22;13462;50.764;4.332;2023-08-30T09:13:35;15.70;99.90
25582;DHT22;13462;50.764;4.332;2023-08-30T09:16:00;15.80;99.90
25582;DHT22;13462;50.764;4.332;2023-08-30T09:18:28;15.90;99.90
25582;DHT22;13462;50.764;4.332;2023-08-30T09:21:10;16.00;99.90
25582;DHT22;13462;50.764;4.332;2023-08-30T09:23:37;16.00;99.90
25582;DHT22;13462;50.764;4.332;2023-08-30T09:26:03;16.00;99.90
25582;DHT22;13462;50.764;4.332;2023-08-30T09:28:30;16.10;99.90
25582;DHT22;13462;50.764;4.332;2023-08-30T09:30:58;16.20;99.90
25582;DHT22;13462;50.764;4.332;2023-08-30T09:33:30;16.20;99.90
25582;DHT22;13462;50.764;4.332;2023-08-30T09:36:00;16.20;99.90
25582;DHT22;13462;50.764;4.332;2023-08-30T09:38:26;16.40;99.90
25582;DHT22;13462;50.764;4.332;2023-08-30T09:41:12;16.40;99.90
25582;DHT22;13462;50.764;4.332;2023-08-30T09:43:42;16.50;99.90
25582;DHT22;13462;50.764;4.332;2023-08-30T09:46:07;16.60;99.90
25582;DHT22;13462;50.764;4.332;2023-08-30T09:48:33;16.60;99.90
25582;DHT22;13462;50.764;4.332;2023-08-30T09:51:02;16.70;99.90
25582;DHT22;13462;50.764;4.332;2023-08-30T09:53:29;16.90;99.90
25582;DHT22;13462;50.764;4.332;2023-08-30T09:55:59;16.90;99.90
25582;DHT22;13462;50.764;4.332;2023-08-30T09:58:27;17.10;99.90
25582;DHT22;13462;50.764;4.332;2023-08-30T10:00:53;17.00;99.90
25582;DHT22;13462;50.764;4.332;2023-08-30T10:03:20;16.80;99.90
25582;DHT22;13462;50.764;4.332;2023-08-30T10:05:46;16.70;99.90
25582;DHT22;13462;50.764;4.332;2023-08-30T10:08:14;16.60;99.90
25582;DHT22;13462;50.764;4.332;2023-08-30T10:10:39;16.50;99.90
25582;DHT22;13462;50.764;4.332;2023-08-30T10:13:06;16.50;99.90
25582;DHT22;13462;50.764;4.332;2023-08-30T10:15:34;16.40;99.90
25582;DHT22;13462;50.764;4.332;2023-08-30T10:18:02;16.40;99.90
25582;DHT22;13462;50.764;4.332;2023-08-30T10:20:29;16.50;99.90
25582;DHT22;13462;50.764;4.332;2023-08-30T10:22:56;16.70;99.90
25582;DHT22;13462;50.764;4.332;2023-08-30T10:25:26;16.80;99.90
25582;DHT22;13462;50.764;4.332;2023-08-30T10:27:53;16.80;99.90
25582;DHT22;13462;50.764;4.332;2023-08-30T10:30:21;16.90;99.90
25582;DHT22;13462;50.764;4.332;2023-08-30T10:32:48;16.80;99.90
25582;DHT22;13462;50.764;4.332;2023-08-30T10:35:16;16.80;99.90
25582;DHT22;13462;50.764;4.332;2023-08-30T10:37:53;17.00;99.90
25582;DHT22;13462;50.764;4.332;2023-08-30T10:40:18;17.10;99.90
25582;DHT22;13462;50.764;4.332;2023-08-30T10:42:45;17.60;99.90
25582;DHT22;13462;50.764;4.332;2023-08-30T10:45:11;18.00;99.90
25582;DHT22;13462;50.764;4.332;2023-08-30T10:47:37;18.20;99.90
25582;DHT22;13462;50.764;4.332;2023-08-30T10:50:11;18.40;99.90
25582;DHT22;13462;50.764;4.332;2023-08-30T10:52:37;18.60;99.90
25582;DHT22;13462;50.764;4.332;2023-08-30T10:55:14;18.90;99.90
25582;DHT22;13462;50.764;4.332;2023-08-30T10:57:44;19.20;99.90
25582;DHT22;13462;50.764;4.332;2023-08-30T11:02:48;19.10;99.90
25582;DHT22;13462;50.764;4.332;2023-08-30T11:05:16;19.30;99.90
25582;DHT22;13462;50.764;4.332;2023-08-30T11:07:43;18.90;99.90
25582;DHT22;13462;50.764;4.332;2023-08-30T11:10:09;19.20;99.90
25582;DHT22;13462;50.764;4.332;2023-08-30T11:12:34;19.10;99.90
25582;DHT22;13462;50.764;4.332;2023-08-30T11:15:01;19.20;99.90
25582;DHT22;13462;50.764;4.332;2023-08-30T11:17:28;19.10;99.90
25582;DHT22;13462;50.764;4.332;2023-08-30T11:20:26;19.20;99.90
25582;DHT22;13462;50.764;4.332;2023-08-30T11:22:51;19.20;99.90
25582;DHT22;13462;50.764;4.332;2023-08-30T11:25:20;19.20;99.90
25582;DHT22;13462;50.764;4.332;2023-08-30T11:27:46;19.40;99.90
25582;DHT22;13462;50.764;4.332;2023-08-30T11:30:13;19.40;99.90
25582;DHT22;13462;50.764;4.332;2023-08-30T11:32:40;19.90;99.90
25582;DHT22;13462;50.764;4.332;2023-08-30T11:35:07;20.50;99.90
25582;DHT22;13462;50.764;4.332;2023-08-30T11:37:33;20.60;99.90
25582;DHT22;13462;50.764;4.332;2023-08-30T11:39:59;20.50;99.90
25582;DHT22;13462;50.764;4.332;2023-08-30T11:42:26;20.30;99.90
25582;DHT22;13462;50.764;4.332;2023-08-30T11:44:52;20.40;99.90
25582;DHT22;13462;50.764;4.332;2023-08-30T11:47:23;20.50;99.90
25582;DHT22;13462;50.764;4.332;2023-08-30T11:49:55;20.60;99.90
25582;DHT22;13462;50.764;4.332;2023-08-30T11:52:23;21.00;99.90
25582;DHT22;13462;50.764;4.332;2023-08-30T11:54:49;22.10;99.90
25582;DHT22;13462;50.764;4.332;2023-08-30T11:57:15;22.50;99.90
25582;DHT22;13462;50.764;4.332;2023-08-30T11:59:40;23.30;99.90
25582;DHT22;13462;50.764;4.332;2023-08-30T12:02:12;24.00;99.90
25582;DHT22;13462;50.764;4.332;2023-08-30T12:04:45;25.20;99.90
25582;DHT22;13462;50.764;4.332;2023-08-30T12:07:24;25.10;99.90
25582;DHT22;13462;50.764;4.332;2023-08-30T12:09:50;24.40;99.90
25582;DHT22;13462;50.764;4.332;2023-08-30T12:12:16;23.00;99.90
25582;DHT22;13462;50.764;4.332;2023-08-30T12:14:42;22.30;99.90
25582;DHT22;13462;50.764;4.332;2023-08-30T12:17:08;21.40;99.90
25582;DHT22;13462;50.764;4.332;2023-08-30T12:19:36;21.50;99.90
25582;DHT22;13462;50.764;4.332;2023-08-30T12:22:05;21.80;99.90
25582;DHT22;13462;50.764;4.332;2023-08-30T12:24:44;22.20;99.90
25582;DHT22;13462;50.764;4.332;2023-08-30T12:27:10;22.30;99.90
25582;DHT22;13462;50.764;4.332;2023-08-30T12:29:36;22.40;99.90
25582;DHT22;13462;50.764;4.332;2023-08-30T12:32:01;23.00;99.90
25582;DHT22;13462;50.764;4.332;2023-08-30T12:34:28;23.70;99.90
25582;DHT22;13462;50.764;4.332;2023-08-30T12:36:53;23.60;99.90
25582;DHT22;13462;50.764;4.332;2023-08-30T12:39:19;24.40;99.90
25582;DHT22;13462;50.764;4.332;2023-08-30T12:41:45;24.90;99.90
25582;DHT22;13462;50.764;4.332;2023-08-30T12:44:10;26.00;97.10
25582;DHT22;13462;50.764;4.332;2023-08-30T12:46:36;26.10;94.60
25582;DHT22;13462;50.764;4.332;2023-08-30T12:49:02;26.60;96.40
25582;DHT22;13462;50.764;4.332;2023-08-30T12:51:27;27.90;96.30
25582;DHT22;13462;50.764;4.332;2023-08-30T12:53:54;28.10;90.60
25582;DHT22;13462;50.764;4.332;2023-08-30T12:56:20;28.10;92.10
25582;DHT22;13462;50.764;4.332;2023-08-30T12:58:45;28.00;90.40
25582;DHT22;13462;50.764;4.332;2023-08-30T13:01:11;26.40;91.30
25582;DHT22;13462;50.764;4.332;2023-08-30T13:03:36;25.80;92.60
25582;DHT22;13462;50.764;4.332;2023-08-30T13:06:02;25.30;95.20
25582;DHT22;13462;50.764;4.332;2023-08-30T13:08:29;25.00;96.20
25582;DHT22;13462;50.764;4.332;2023-08-30T13:10:55;23.90;96.60
25582;DHT22;13462;50.764;4.332;2023-08-30T13:13:20;23.50;98.10
25582;DHT22;13462;50.764;4.332;2023-08-30T13:15:47;24.30;98.40
25582;DHT22;13462;50.764;4.332;2023-08-30T13:18:14;25.70;96.00
25582;DHT22;13462;50.764;4.332;2023-08-30T13:20:41;26.50;93.80
25582;DHT22;13462;50.764;4.332;2023-08-30T13:23:07;27.10;90.90
25582;DHT22;13462;50.764;4.332;2023-08-30T13:25:33;27.10;92.30
25582;DHT22;13462;50.764;4.332;2023-08-30T13:27:59;25.20;92.50
25582;DHT22;13462;50.764;4.332;2023-08-30T13:30:24;23.90;95.60
25582;DHT22;13462;50.764;4.332;2023-08-30T13:32:50;23.20;96.60
25582;DHT22;13462;50.764;4.332;2023-08-30T13:35:16;22.80;98.70
25582;DHT22;13462;50.764;4.332;2023-08-30T13:37:41;23.40;97.20
25582;DHT22;13462;50.764;4.332;2023-08-30T13:40:08;22.90;98.50
25582;DHT22;13462;50.764;4.332;2023-08-30T13:42:33;23.20;99.90
25582;DHT22;13462;50.764;4.332;2023-08-30T13:44:59;24.10;96.70
25582;DHT22;13462;50.764;4.332;2023-08-30T13:47:25;24.90;97.20
25582;DHT22;13462;50.764;4.332;2023-08-30T13:49:51;25.50;95.10
25582;DHT22;13462;50.764;4.332;2023-08-30T13:52:17;25.60;93.70
25582;DHT22;13462;50.764;4.332;2023-08-30T13:54:43;25.70;94.10
25582;DHT22;13462;50.764;4.332;2023-08-30T13:57:09;24.90;95.00
25582;DHT22;13462;50.764;4.332;2023-08-30T13:59:34;22.90;96.50
25582;DHT22;13462;50.764;4.332;2023-08-30T14:02:02;22.60;98.90
25582;DHT22;13462;50.764;4.332;2023-08-30T14:04:29;22.30;97.90
25582;DHT22;13462;50.764;4.332;2023-08-30T14:06:58;22.20;99.50
25582;DHT22;13462;50.764;4.332;2023-08-30T14:09:23;22.10;99.70
25582;DHT22;13462;50.764;4.332;2023-08-30T14:11:49;22.00;99.90
25582;DHT22;13462;50.764;4.332;2023-08-30T14:14:15;21.80;99.90
25582;DHT22;13462;50.764;4.332;2023-08-30T14:16:41;21.10;99.90
25582;DHT22;13462;50.764;4.332;2023-08-30T14:19:06;20.80;99.90
25582;DHT22;13462;50.764;4.332;2023-08-30T14:21:32;20.90;99.90
25582;DHT22;13462;50.764;4.332;2023-08-30T14:23:58;21.30;99.90
25582;DHT22;13462;50.764;4.332;2023-08-30T14:26:24;21.70;99.90
25582;DHT22;13462;50.764;4.332;2023-08-30T14:28:49;21.80;99.90
25582;DHT22;13462;50.764;4.332;2023-08-30T14:31:15;21.60;99.90
25582;DHT22;13462;50.764;4.332;2023-08-30T14:33:44;21.50;99.90
25582;DHT22;13462;50.764;4.332;2023-08-30T14:36:10;21.20;99.90
25582;DHT22;13462;50.764;4.332;2023-08-30T14:38:36;20.50;99.90
25582;DHT22;13462;50.764;4.332;2023-08-30T14:41:03;20.40;99.90
25582;DHT22;13462;50.764;4.332;2023-08-30T14:43:29;20.50;99.90
25582;DHT22;13462;50.764;4.332;2023-08-30T14:46:02;20.60;99.90
25582;DHT22;13462;50.764;4.332;2023-08-30T14:48:28;20.40;99.90
25582;DHT22;13462;50.764;4.332;2023-08-30T14:50:54;20.10;99.90
25582;DHT22;13462;50.764;4.332;2023-08-30T14:53:19;19.80;99.90
25582;DHT22;13462;50.764;4.332;2023-08-30T14:55:45;19.70;99.90
25582;DHT22;13462;50.764;4.332;2023-08-30T14:58:12;19.90;99.90
25582;DHT22;13462;50.764;4.332;2023-08-30T15:00:38;20.10;99.90
25582;DHT22;13462;50.764;4.332;2023-08-30T15:03:04;20.60;99.90
25582;DHT22;13462;50.764;4.332;2023-08-30T15:05:30;20.60;99.90
25582;DHT22;13462;50.764;4.332;2023-08-30T15:07:55;20.80;99.90
25582;DHT22;13462;50.764;4.332;2023-08-30T15:10:39;20.90;99.90
25582;DHT22;13462;50.764;4.332;2023-08-30T15:13:05;20.90;99.90
25582;DHT22;13462;50.764;4.332;2023-08-30T15:15:30;20.60;99.90
25582;DHT22;13462;50.764;4.332;2023-08-30T15:20:32;20.60;99.90
25582;DHT22;13462;50.764;4.332;2023-08-30T15:22:58;20.30;99.90
25582;DHT22;13462;50.764;4.332;2023-08-30T15:25:25;20.10;99.90
25582;DHT22;13462;50.764;4.332;2023-08-30T15:27:50;20.10;99.90
25582;DHT22;13462;50.764;4.332;2023-08-30T15:30:16;20.20;99.90
25582;DHT22;13462;50.764;4.332;2023-08-30T15:32:44;20.10;99.90
25582;DHT22;13462;50.764;4.332;2023-08-30T15:35:09;20.10;99.90
25582;DHT22;13462;50.764;4.332;2023-08-30T15:37:38;20.30;99.90